createdAt,value
2022-10-23T00:00:00.008Z,12.16
2022-10-23T00:01:00.037Z,12.13
2022-10-23T00:02:00.139Z,12.05
2022-10-23T00:03:00.186Z,12.13
2022-10-23T00:04:00.141Z,12.16
2022-10-23T00:05:00.142Z,12.19
2022-10-23T00:06:00.168Z,12.08
2022-10-23T00:07:00.196Z,12.18
2022-10-23T00:08:00.239Z,12.11
2022-10-23T00:09:00.252Z,12.10
2022-10-23T00:10:00.277Z,12.07
2022-10-23T00:11:00.301Z,12.04
2022-10-23T00:12:00.327Z,12.18
2022-10-23T00:13:00.355Z,12.07
2022-10-23T00:14:00.379Z,11.98
2022-10-23T00:15:00.408Z,12.03
2022-10-23T00:16:00.436Z,12.04
2022-10-23T00:17:00.460Z,12.00
2022-10-23T00:18:00.486Z,12.05
2022-10-23T00:19:00.518Z,12.03
2022-10-23T00:20:00.539Z,11.97
2022-10-23T00:21:00.566Z,12.01
2022-10-23T00:22:00.594Z,12.07
2022-10-23T00:23:00.618Z,11.97
2022-10-23T00:24:00.722Z,11.98
2022-10-23T00:25:00.672Z,11.94
2022-10-23T00:26:00.697Z,11.94
2022-10-23T00:27:00.725Z,12.01
2022-10-23T00:28:00.749Z,11.98
2022-10-23T00:29:00.776Z,11.97
2022-10-23T00:30:00.802Z,11.88
2022-10-23T00:31:00.830Z,11.86
2022-10-23T00:32:00.853Z,11.91
2022-10-23T00:33:00.880Z,11.89
2022-10-23T00:34:00.906Z,11.85
2022-10-23T00:35:00.935Z,11.84
2022-10-23T00:36:00.960Z,11.85
2022-10-23T00:37:00.990Z,11.84
2022-10-23T00:38:01.013Z,11.79
2022-10-23T00:39:01.041Z,11.86
2022-10-23T00:40:01.095Z,11.79
2022-10-23T00:41:01.093Z,11.76
2022-10-23T00:42:01.117Z,11.76
2022-10-23T00:43:01.147Z,11.78
2022-10-23T00:44:01.170Z,11.79
2022-10-23T00:45:01.198Z,11.76
2022-10-23T00:46:01.223Z,11.73
2022-10-23T00:47:01.250Z,11.76
2022-10-23T00:48:01.278Z,11.86
2022-10-23T00:49:01.401Z,11.73
2022-10-23T00:50:01.329Z,11.79
2022-10-23T00:51:01.356Z,11.78
2022-10-23T00:52:01.380Z,11.86
2022-10-23T00:53:01.408Z,11.78
2022-10-23T00:54:22.938Z,11.76
2022-10-23T00:55:01.461Z,11.73
2022-10-23T00:56:01.509Z,11.73
2022-10-23T00:57:01.513Z,11.78
2022-10-23T00:58:01.542Z,11.71
2022-10-23T00:59:04.791Z,11.81
2022-10-23T01:00:01.583Z,11.73
2022-10-23T01:01:01.693Z,11.76
2022-10-23T01:02:01.810Z,11.79
2022-10-23T01:03:01.667Z,11.81
2022-10-23T01:04:01.702Z,11.63
2022-10-23T01:05:04.352Z,11.75
2022-10-23T01:06:01.740Z,11.64
2022-10-23T01:07:01.772Z,11.66
2022-10-23T01:08:01.993Z,11.70
2022-10-23T01:09:01.822Z,11.68
2022-10-23T01:10:01.846Z,11.67
2022-10-23T01:11:01.885Z,11.70
2022-10-23T01:12:02.325Z,11.64
2022-10-23T01:15:01.979Z,11.64
2022-10-23T01:16:02.000Z,11.66
2022-10-23T01:17:02.030Z,11.67
2022-10-23T01:18:02.052Z,11.64
2022-10-23T01:19:02.081Z,11.63
2022-10-23T01:20:02.108Z,11.63
2022-10-23T01:21:03.145Z,11.61
2022-10-23T01:22:02.169Z,11.59
2022-10-23T01:23:02.506Z,11.66
2022-10-23T01:24:02.221Z,11.66
2022-10-23T01:25:02.452Z,11.56
2022-10-23T01:26:02.274Z,11.53
2022-10-23T01:27:02.511Z,11.53
2022-10-23T01:28:02.333Z,11.68
2022-10-23T01:29:02.360Z,11.61
2022-10-23T01:30:02.381Z,11.63
2022-10-23T01:31:02.394Z,11.52
2022-10-23T01:32:02.429Z,11.56
2022-10-23T01:33:02.457Z,11.56
2022-10-23T01:34:02.485Z,11.56
2022-10-23T01:35:02.501Z,11.56
2022-10-23T01:36:02.738Z,11.41
2022-10-23T01:38:02.899Z,11.56
2022-10-23T01:40:02.629Z,11.42
2022-10-23T01:41:02.666Z,11.45
2022-10-23T01:42:02.676Z,11.42
2022-10-23T01:43:02.705Z,11.56
2022-10-23T01:44:02.748Z,11.51
2022-10-23T01:45:02.770Z,11.46
2022-10-23T01:46:02.778Z,11.52
2022-10-23T01:47:02.806Z,11.61
2022-10-23T01:48:02.842Z,11.41
2022-10-23T01:49:02.869Z,11.51
2022-10-23T01:50:02.880Z,11.52
2022-10-23T01:51:02.923Z,11.48
2022-10-23T01:52:02.931Z,11.57
2022-10-23T01:53:02.958Z,11.48
2022-10-23T01:54:45.526Z,11.48
2022-10-23T01:56:38.129Z,11.46
2022-10-23T01:57:38.151Z,11.59
2022-10-23T01:58:38.176Z,11.42
2022-10-23T02:00:41.067Z,11.49
2022-10-23T02:01:38.480Z,11.43
2022-10-23T02:02:38.275Z,11.43
2022-10-23T02:03:38.905Z,11.52
2022-10-23T02:04:38.325Z,11.39
2022-10-23T02:05:38.752Z,11.53
2022-10-23T02:06:38.375Z,11.52
2022-10-23T02:07:38.400Z,11.42
2022-10-23T02:08:38.427Z,11.38
2022-10-23T02:09:38.457Z,11.48
2022-10-23T02:10:38.481Z,11.46
2022-10-23T02:11:38.505Z,11.57
2022-10-23T02:12:38.532Z,11.57
2022-10-23T02:13:38.557Z,11.60
2022-10-23T02:14:38.586Z,11.61
2022-10-23T02:15:38.608Z,11.57
2022-10-23T02:16:38.653Z,11.67
2022-10-23T02:17:38.660Z,11.70
2022-10-23T02:18:38.687Z,11.76
2022-10-23T02:19:38.722Z,11.76
2022-10-23T02:22:14.039Z,11.82
2022-10-23T02:23:14.065Z,11.78
2022-10-23T02:24:14.090Z,11.79
2022-10-23T02:25:14.115Z,11.84
2022-10-23T02:26:14.138Z,11.89
2022-10-23T02:27:14.171Z,11.89
2022-10-23T02:28:14.191Z,11.91
2022-10-23T02:29:14.217Z,12.03
2022-10-23T02:30:14.245Z,11.97
2022-10-23T02:31:14.270Z,11.91
2022-10-23T02:32:14.310Z,11.95
2022-10-23T02:33:15.329Z,12.00
2022-10-23T02:34:14.340Z,11.91
2022-10-23T02:35:14.366Z,11.98
2022-10-23T02:36:14.391Z,12.07
2022-10-23T02:37:14.492Z,12.11
2022-10-23T02:38:15.871Z,12.05
2022-10-23T02:39:14.481Z,12.10
2022-10-23T02:40:14.501Z,12.07
2022-10-23T02:41:14.529Z,12.07
2022-10-23T02:42:14.544Z,12.22
2022-10-23T02:43:17.999Z,12.31
2022-10-23T02:44:14.591Z,12.28
2022-10-23T02:45:14.618Z,12.29
2022-10-23T02:46:14.645Z,12.25
2022-10-23T02:47:14.675Z,12.37
2022-10-23T02:48:14.711Z,12.29
2022-10-23T02:49:14.723Z,12.36
2022-10-23T02:50:14.743Z,12.38
2022-10-23T02:51:18.417Z,12.44
2022-10-23T02:52:57.343Z,12.44
2022-10-23T02:54:57.405Z,12.44
2022-10-23T02:55:58.636Z,12.56
2022-10-23T02:56:57.458Z,12.47
2022-10-23T02:57:57.475Z,12.47
2022-10-23T02:58:57.501Z,12.47
2022-10-23T02:59:57.527Z,12.55
2022-10-23T03:00:57.604Z,12.55
2022-10-23T03:01:57.704Z,12.61
2022-10-23T03:02:57.607Z,12.59
2022-10-23T03:03:57.650Z,12.69
2022-10-23T03:04:57.656Z,12.65
2022-10-23T03:05:57.685Z,12.71
2022-10-23T03:06:57.711Z,12.69
2022-10-23T03:07:57.736Z,12.76
2022-10-23T03:08:57.764Z,12.77
2022-10-23T03:09:57.793Z,12.76
2022-10-23T03:10:57.821Z,12.70
2022-10-23T03:11:57.847Z,12.89
2022-10-23T03:12:57.866Z,12.83
2022-10-23T03:13:57.899Z,12.83
2022-10-23T03:14:57.923Z,12.95
2022-10-23T03:15:57.949Z,12.95
2022-10-23T03:16:57.975Z,12.95
2022-10-23T03:17:59.228Z,12.99
2022-10-23T03:18:59.317Z,13.02
2022-10-23T03:20:40.621Z,13.16
2022-10-23T03:21:40.629Z,13.11
2022-10-23T03:22:40.927Z,13.09
2022-10-23T03:23:40.719Z,13.10
2022-10-23T03:24:40.706Z,13.03
2022-10-23T03:25:40.738Z,13.11
2022-10-23T03:26:41.365Z,13.06
2022-10-23T03:27:40.785Z,13.19
2022-10-23T03:29:40.845Z,13.16
2022-10-23T03:30:40.862Z,13.07
2022-10-23T03:31:40.887Z,13.17
2022-10-23T03:35:33.959Z,13.16
2022-10-23T03:39:32.758Z,13.01
2022-10-23T03:39:59.549Z,13.01
2022-10-23T03:40:59.581Z,13.03
2022-10-23T03:41:59.623Z,13.09
2022-10-23T03:42:59.630Z,13.16
2022-10-23T03:43:59.731Z,13.10
2022-10-23T03:44:59.679Z,13.16
2022-10-23T03:45:59.731Z,13.10
2022-10-23T03:46:59.732Z,13.10
2022-10-23T03:47:59.757Z,13.09
2022-10-23T03:50:20.558Z,13.11
2022-10-23T03:50:47.383Z,13.17
2022-10-23T03:51:47.411Z,13.24
2022-10-23T03:56:03.258Z,13.24
2022-10-23T03:56:30.066Z,13.20
2022-10-23T03:58:50.852Z,13.36
2022-10-23T03:59:17.665Z,13.27
2022-10-23T04:00:17.692Z,13.27
2022-10-23T04:01:17.754Z,13.32
2022-10-23T04:02:17.885Z,13.29
2022-10-23T04:03:17.770Z,13.36
2022-10-23T04:04:17.796Z,13.44
2022-10-23T04:05:17.821Z,13.39
2022-10-23T04:06:17.850Z,13.39
2022-10-23T04:07:17.874Z,13.28
2022-10-23T04:08:20.110Z,13.36
2022-10-23T04:09:17.935Z,13.29
2022-10-23T04:10:17.957Z,13.29
2022-10-23T04:11:17.999Z,13.28
2022-10-23T04:12:18.010Z,13.36
2022-10-23T04:14:00.582Z,13.37
2022-10-23T04:15:00.609Z,13.35
2022-10-23T04:16:00.633Z,13.28
2022-10-23T04:17:00.659Z,13.36
2022-10-23T04:18:00.688Z,13.27
2022-10-23T04:19:00.711Z,13.32
2022-10-23T04:20:02.151Z,13.27
2022-10-23T04:21:00.757Z,13.21
2022-10-23T04:22:01.791Z,13.25
2022-10-23T04:23:00.805Z,13.24
2022-10-23T04:24:00.830Z,13.20
2022-10-23T04:25:00.869Z,13.24
2022-10-23T04:26:00.881Z,13.28
2022-10-23T04:27:00.922Z,13.21
2022-10-23T04:28:00.931Z,13.27
2022-10-23T04:29:00.958Z,13.27
2022-10-23T04:30:00.982Z,13.29
2022-10-23T04:31:01.023Z,13.28
2022-10-23T04:32:01.237Z,13.25
2022-10-23T04:33:01.059Z,13.29
2022-10-23T04:34:01.135Z,13.28
2022-10-23T04:35:01.113Z,13.27
2022-10-23T04:36:01.138Z,13.27
2022-10-23T04:37:01.167Z,13.19
2022-10-23T04:38:01.189Z,13.21
2022-10-23T04:39:01.218Z,13.19
2022-10-23T04:41:01.268Z,13.21
2022-10-23T04:42:01.296Z,13.14
2022-10-23T04:43:01.342Z,13.31
2022-10-23T04:44:02.572Z,13.17
2022-10-23T04:45:01.375Z,13.24
2022-10-23T04:46:01.400Z,13.16
2022-10-23T04:47:01.428Z,13.14
2022-10-23T04:48:01.453Z,13.16
2022-10-23T04:49:01.477Z,13.24
2022-10-23T04:50:04.129Z,13.25
2022-10-23T04:51:01.543Z,13.25
2022-10-23T04:52:01.557Z,13.24
2022-10-23T04:53:01.580Z,13.25
2022-10-23T04:54:01.607Z,13.17
2022-10-23T04:55:01.631Z,13.37
2022-10-23T04:56:01.676Z,13.39
2022-10-23T04:57:01.682Z,13.37
2022-10-23T04:58:01.710Z,13.25
2022-10-23T04:59:01.776Z,13.31
2022-10-23T05:00:01.764Z,13.39
2022-10-23T05:01:01.885Z,13.39
2022-10-23T05:02:01.820Z,13.47
2022-10-23T05:03:01.842Z,13.44
2022-10-23T05:04:01.870Z,13.39
2022-10-23T05:05:01.894Z,13.27
2022-10-23T05:06:01.923Z,13.39
2022-10-23T05:07:01.948Z,13.27
2022-10-23T05:08:01.978Z,13.14
2022-10-23T05:09:02.002Z,13.20
2022-10-23T05:10:02.029Z,13.16
2022-10-23T05:11:02.055Z,13.21
2022-10-23T05:12:02.084Z,13.21
2022-10-23T05:13:02.108Z,13.21
2022-10-23T05:14:02.134Z,13.19
2022-10-23T05:15:02.182Z,13.24
2022-10-23T05:16:02.193Z,13.27
2022-10-23T05:17:02.215Z,13.27
2022-10-23T05:18:02.243Z,13.27
2022-10-23T05:19:02.269Z,13.29
2022-10-23T05:20:02.298Z,13.25
2022-10-23T05:21:02.326Z,13.42
2022-10-23T05:22:02.354Z,13.42
2022-10-23T05:23:02.377Z,13.39
2022-10-23T05:24:02.498Z,13.44
2022-10-23T05:25:02.428Z,13.44
2022-10-23T05:26:02.457Z,13.39
2022-10-23T05:27:02.481Z,13.36
2022-10-23T05:28:02.511Z,13.40
2022-10-23T05:29:02.535Z,13.44
2022-10-23T05:30:02.575Z,13.37
2022-10-23T05:31:02.607Z,13.40
2022-10-23T05:32:02.615Z,13.42
2022-10-23T05:33:02.642Z,13.40
2022-10-23T05:34:02.670Z,13.42
2022-10-23T05:35:02.695Z,13.44
2022-10-23T05:36:02.725Z,13.37
2022-10-23T05:37:02.749Z,13.36
2022-10-23T05:38:02.778Z,13.27
2022-10-23T05:39:02.805Z,13.24
2022-10-23T05:40:02.831Z,13.39
2022-10-23T05:41:02.855Z,13.32
2022-10-23T05:42:02.882Z,13.39
2022-10-23T05:43:02.909Z,13.39
2022-10-23T05:44:02.936Z,13.40
2022-10-23T05:45:02.960Z,13.45
2022-10-23T05:46:02.990Z,13.42
2022-10-23T05:47:03.033Z,13.40
2022-10-23T05:48:10.916Z,13.44
2022-10-23T05:49:03.070Z,13.27
2022-10-23T05:50:03.095Z,13.29
2022-10-23T05:51:03.122Z,13.35
2022-10-23T05:52:03.150Z,13.31
2022-10-23T05:53:03.177Z,13.25
2022-10-23T05:54:03.204Z,13.37
2022-10-23T05:55:03.233Z,13.25
2022-10-23T05:56:03.258Z,13.29
2022-10-23T05:57:03.410Z,13.39
2022-10-23T05:58:03.362Z,13.36
2022-10-23T05:59:03.334Z,13.39
2022-10-23T06:00:03.363Z,13.39
2022-10-23T06:01:03.423Z,13.44
2022-10-23T06:02:03.552Z,13.21
2022-10-23T06:03:03.458Z,13.40
2022-10-23T06:04:03.470Z,13.28
2022-10-23T06:05:03.494Z,13.35
2022-10-23T06:06:03.523Z,13.28
2022-10-23T06:07:03.547Z,13.25
2022-10-23T06:08:03.576Z,13.35
2022-10-23T06:09:03.601Z,13.39
2022-10-23T06:10:03.630Z,13.45
2022-10-23T06:11:03.655Z,13.48
2022-10-23T06:12:03.683Z,13.44
2022-10-23T06:13:03.707Z,13.48
2022-10-23T06:14:03.738Z,13.50
2022-10-23T06:15:03.762Z,13.48
2022-10-23T06:16:08.588Z,13.48
2022-10-23T06:17:03.813Z,13.47
2022-10-23T06:18:03.844Z,13.51
2022-10-23T06:19:03.885Z,13.45
2022-10-23T06:20:03.896Z,13.45
2022-10-23T06:21:03.920Z,13.47
2022-10-23T06:22:03.963Z,13.40
2022-10-23T06:23:03.978Z,13.47
2022-10-23T06:24:04.003Z,13.47
2022-10-23T06:25:04.026Z,13.54
2022-10-23T06:26:04.056Z,13.55
2022-10-23T06:27:04.081Z,13.54
2022-10-23T06:28:04.111Z,13.57
2022-10-23T06:29:04.137Z,13.53
2022-10-23T06:30:04.162Z,13.55
2022-10-23T06:31:04.188Z,13.62
2022-10-23T06:32:04.216Z,13.68
2022-10-23T06:33:05.908Z,13.72
2022-10-23T06:34:04.269Z,13.76
2022-10-23T06:35:04.313Z,13.79
2022-10-23T06:36:04.325Z,13.81
2022-10-23T06:37:04.347Z,13.86
2022-10-23T06:38:04.376Z,14.01
2022-10-23T06:39:04.405Z,13.91
2022-10-23T06:40:04.489Z,13.91
2022-10-23T06:41:04.453Z,13.94
2022-10-23T06:42:04.483Z,14.02
2022-10-23T06:43:04.509Z,14.06
2022-10-23T06:44:04.538Z,14.06
2022-10-23T06:45:06.450Z,14.16
2022-10-23T06:46:04.590Z,14.16
2022-10-23T06:47:04.671Z,14.13
2022-10-23T06:48:04.644Z,14.26
2022-10-23T06:49:04.670Z,14.28
2022-10-23T06:50:04.698Z,14.33
2022-10-23T06:51:04.742Z,14.28
2022-10-23T06:52:04.754Z,14.44
2022-10-23T06:53:04.777Z,14.41
2022-10-23T06:54:04.806Z,14.44
2022-10-23T06:55:04.830Z,14.51
2022-10-23T06:56:04.861Z,14.48
2022-10-23T06:57:04.885Z,14.39
2022-10-23T06:58:04.914Z,14.45
2022-10-23T06:59:04.940Z,14.48
2022-10-23T07:00:04.968Z,14.51
2022-10-23T07:01:05.176Z,14.48
2022-10-23T07:02:05.021Z,14.44
2022-10-23T07:03:05.049Z,14.46
2022-10-23T07:04:05.078Z,14.53
2022-10-23T07:05:07.701Z,14.41
2022-10-23T07:06:05.132Z,14.51
2022-10-23T07:07:05.177Z,14.61
2022-10-23T07:08:05.187Z,14.60
2022-10-23T07:09:05.211Z,14.66
2022-10-23T07:10:05.295Z,14.71
2022-10-23T07:11:05.265Z,14.71
2022-10-23T07:12:05.295Z,14.75
2022-10-23T07:13:05.319Z,14.75
2022-10-23T07:14:05.348Z,14.82
2022-10-23T07:15:05.373Z,14.82
2022-10-23T07:16:05.403Z,14.79
2022-10-23T07:17:05.428Z,14.82
2022-10-23T07:18:05.456Z,14.89
2022-10-23T07:19:05.484Z,14.95
2022-10-23T07:20:05.510Z,14.85
2022-10-23T07:21:05.539Z,14.93
2022-10-23T07:22:05.565Z,14.86
2022-10-23T07:23:05.611Z,14.94
2022-10-23T07:24:05.623Z,14.89
2022-10-23T07:25:05.646Z,15.02
2022-10-23T07:26:05.675Z,15.01
2022-10-23T07:27:05.700Z,14.93
2022-10-23T07:28:05.730Z,14.98
2022-10-23T07:29:05.756Z,15.10
2022-10-23T07:30:05.785Z,15.12
2022-10-23T07:31:05.814Z,15.08
2022-10-23T07:32:05.840Z,15.23
2022-10-23T07:33:05.865Z,15.27
2022-10-23T07:34:05.894Z,15.30
2022-10-23T07:35:05.951Z,15.35
2022-10-23T07:36:05.951Z,15.37
2022-10-23T07:37:05.974Z,15.26
2022-10-23T07:38:06.003Z,15.33
2022-10-23T07:39:06.050Z,15.33
2022-10-23T07:40:06.059Z,15.31
2022-10-23T07:41:08.932Z,15.35
2022-10-23T07:42:06.116Z,15.41
2022-10-23T07:43:06.142Z,15.45
2022-10-23T07:44:06.171Z,15.44
2022-10-23T07:45:06.198Z,15.45
2022-10-23T07:46:06.224Z,15.44
2022-10-23T07:47:06.252Z,15.45
2022-10-23T07:48:06.282Z,15.45
2022-10-23T07:49:06.305Z,15.59
2022-10-23T07:50:06.336Z,15.56
2022-10-23T07:51:06.361Z,15.49
2022-10-23T07:52:06.393Z,15.53
2022-10-23T07:53:06.415Z,15.60
2022-10-23T07:54:06.445Z,15.60
2022-10-23T07:55:06.495Z,15.65
2022-10-23T07:56:06.501Z,15.56
2022-10-23T07:57:06.526Z,15.59
2022-10-23T07:58:06.556Z,15.58
2022-10-23T07:59:06.583Z,15.62
2022-10-23T08:00:06.620Z,15.59
2022-10-23T08:01:06.706Z,15.60
2022-10-23T08:02:06.711Z,15.70
2022-10-23T08:03:06.695Z,15.67
2022-10-23T08:04:06.726Z,15.68
2022-10-23T08:05:06.750Z,15.74
2022-10-23T08:06:06.779Z,15.71
2022-10-23T08:07:06.805Z,15.71
2022-10-23T08:08:06.835Z,15.77
2022-10-23T08:09:07.180Z,15.71
2022-10-23T08:10:06.890Z,15.65
2022-10-23T08:11:06.934Z,15.77
2022-10-23T08:12:06.946Z,15.67
2022-10-23T08:13:06.971Z,15.71
2022-10-23T08:14:07.000Z,15.71
2022-10-23T08:15:07.027Z,15.80
2022-10-23T08:16:07.057Z,15.71
2022-10-23T08:17:07.085Z,15.71
2022-10-23T08:18:07.117Z,15.68
2022-10-23T08:19:07.140Z,15.73
2022-10-23T08:20:07.167Z,15.78
2022-10-23T08:21:07.197Z,15.77
2022-10-23T08:22:07.223Z,15.81
2022-10-23T08:23:07.251Z,15.91
2022-10-23T08:24:07.281Z,15.83
2022-10-23T08:25:07.306Z,15.84
2022-10-23T08:26:07.339Z,15.95
2022-10-23T08:27:07.380Z,16.00
2022-10-23T08:28:07.393Z,16.07
2022-10-23T08:29:07.420Z,16.04
2022-10-23T08:30:07.447Z,16.07
2022-10-23T08:31:07.476Z,16.02
2022-10-23T08:32:07.504Z,16.08
2022-10-23T08:33:07.530Z,16.08
2022-10-23T08:34:07.558Z,16.14
2022-10-23T08:35:07.586Z,16.07
2022-10-23T08:36:07.615Z,16.16
2022-10-23T08:37:07.643Z,16.11
2022-10-23T08:38:07.670Z,16.16
2022-10-23T08:39:07.701Z,16.17
2022-10-23T08:40:07.727Z,16.25
2022-10-23T08:41:07.756Z,16.34
2022-10-23T08:42:07.840Z,16.36
2022-10-23T08:43:07.832Z,16.42
2022-10-23T08:44:07.839Z,16.42
2022-10-23T08:45:07.868Z,16.51
2022-10-23T08:46:09.366Z,16.52
2022-10-23T08:47:07.926Z,16.62
2022-10-23T08:48:07.959Z,16.67
2022-10-23T08:49:07.982Z,16.70
2022-10-23T08:50:08.012Z,16.82
2022-10-23T08:51:08.038Z,16.80
2022-10-23T08:52:10.431Z,16.80
2022-10-23T08:53:08.097Z,16.87
2022-10-23T08:54:08.121Z,16.91
2022-10-23T08:55:08.152Z,16.91
2022-10-23T08:56:08.179Z,16.99
2022-10-23T08:57:08.207Z,17.05
2022-10-23T08:58:08.236Z,17.06
2022-10-23T08:59:08.286Z,17.05
2022-10-23T09:00:08.293Z,17.02
2022-10-23T09:01:08.472Z,17.17
2022-10-23T09:02:08.539Z,17.22
2022-10-23T09:03:08.381Z,17.21
2022-10-23T09:04:08.410Z,17.27
2022-10-23T09:05:08.437Z,17.42
2022-10-23T09:06:08.468Z,17.30
2022-10-23T09:08:08.522Z,17.35
2022-10-23T09:09:08.556Z,17.45
2022-10-23T09:10:08.580Z,17.36
2022-10-23T09:11:08.611Z,17.45
2022-10-23T09:12:08.638Z,17.52
2022-10-23T09:13:08.666Z,17.52
2022-10-23T09:14:08.699Z,17.58
2022-10-23T09:15:08.745Z,17.54
2022-10-23T09:16:08.763Z,17.60
2022-10-23T09:17:08.838Z,17.73
2022-10-23T09:18:08.810Z,17.71
2022-10-23T09:19:12.089Z,17.90
2022-10-23T09:20:08.869Z,17.87
2022-10-23T09:21:08.902Z,17.87
2022-10-23T09:22:08.927Z,17.87
2022-10-23T09:23:08.959Z,17.96
2022-10-23T09:24:08.987Z,17.96
2022-10-23T09:25:09.015Z,18.02
2022-10-23T09:26:09.044Z,18.01
2022-10-23T09:27:09.078Z,18.01
2022-10-23T09:28:09.101Z,18.03
2022-10-23T09:29:09.135Z,18.08
2022-10-23T09:30:09.159Z,18.16
2022-10-23T09:31:09.210Z,18.17
2022-10-23T09:32:09.217Z,18.16
2022-10-23T09:33:09.250Z,18.20
2022-10-23T09:34:11.686Z,18.27
2022-10-23T09:35:09.307Z,18.19
2022-10-23T09:36:09.335Z,18.23
2022-10-23T09:37:09.368Z,18.26
2022-10-23T09:38:09.391Z,18.41
2022-10-23T09:39:09.427Z,18.34
2022-10-23T09:40:09.450Z,18.36
2022-10-23T09:41:09.480Z,18.39
2022-10-23T09:42:09.510Z,18.42
2022-10-23T09:43:09.540Z,18.51
2022-10-23T09:44:09.569Z,18.45
2022-10-23T09:45:09.604Z,18.56
2022-10-23T09:46:09.628Z,18.61
2022-10-23T09:47:09.677Z,18.65
2022-10-23T09:48:09.686Z,18.63
2022-10-23T09:49:09.715Z,18.65
2022-10-23T09:50:09.745Z,18.74
2022-10-23T09:51:09.777Z,18.82
2022-10-23T09:52:09.805Z,18.84
2022-10-23T09:53:09.834Z,18.87
2022-10-23T09:54:09.863Z,18.96
2022-10-23T09:55:09.897Z,18.97
2022-10-23T09:56:09.923Z,18.90
2022-10-23T09:57:09.953Z,19.02
2022-10-23T09:58:09.982Z,19.00
2022-10-23T09:59:10.011Z,19.05
2022-10-23T10:00:10.042Z,19.05
2022-10-23T10:01:10.247Z,19.06
2022-10-23T10:02:10.202Z,19.02
2022-10-23T10:03:10.151Z,18.97
2022-10-23T10:04:10.159Z,19.02
2022-10-23T10:05:10.192Z,19.06
2022-10-23T10:06:10.222Z,19.15
2022-10-23T10:07:10.254Z,19.24
2022-10-23T10:08:10.278Z,19.42
2022-10-23T10:09:10.309Z,19.43
2022-10-23T10:10:10.341Z,19.50
2022-10-23T10:11:10.370Z,19.38
2022-10-23T10:12:10.409Z,19.35
2022-10-23T10:13:14.253Z,19.50
2022-10-23T10:14:10.456Z,19.56
2022-10-23T10:15:10.489Z,19.64
2022-10-23T10:16:10.519Z,19.71
2022-10-23T10:17:10.553Z,19.63
2022-10-23T10:18:10.584Z,19.63
2022-10-23T10:19:10.626Z,19.57
2022-10-23T10:20:10.645Z,19.67
2022-10-23T10:21:10.669Z,19.61
2022-10-23T10:22:10.698Z,19.68
2022-10-23T10:23:10.729Z,19.57
2022-10-23T10:24:10.757Z,19.53
2022-10-23T10:25:10.788Z,19.57
2022-10-23T10:26:10.818Z,19.57
2022-10-23T10:27:10.854Z,19.57
2022-10-23T10:28:10.879Z,19.52
2022-10-23T10:29:10.907Z,19.63
2022-10-23T10:30:10.936Z,19.60
2022-10-23T10:31:10.969Z,19.45
2022-10-23T10:32:10.997Z,19.37
2022-10-23T10:33:11.027Z,19.45
2022-10-23T10:34:11.058Z,19.35
2022-10-23T10:35:11.106Z,19.31
2022-10-23T10:36:11.118Z,19.31
2022-10-23T10:37:11.148Z,19.31
2022-10-23T10:38:11.178Z,19.31
2022-10-23T10:39:11.212Z,19.40
2022-10-23T10:40:11.245Z,19.40
2022-10-23T10:41:11.268Z,19.31
2022-10-23T10:42:11.298Z,19.40
2022-10-23T10:43:11.328Z,19.30
2022-10-23T10:44:11.355Z,19.30
2022-10-23T10:45:11.388Z,19.30
2022-10-23T10:46:11.455Z,19.17
2022-10-23T10:47:11.450Z,19.16
2022-10-23T10:48:11.478Z,19.23
2022-10-23T10:49:11.508Z,19.15
2022-10-23T10:50:11.537Z,19.12
2022-10-23T10:51:11.593Z,19.02
2022-10-23T10:52:11.597Z,19.07
2022-10-23T10:53:11.626Z,19.02
2022-10-23T10:54:11.655Z,19.13
2022-10-23T10:55:11.687Z,18.99
2022-10-23T10:56:11.727Z,19.00
2022-10-23T10:57:11.746Z,18.94
2022-10-23T10:58:11.773Z,19.02
2022-10-23T10:59:11.807Z,18.99
2022-10-23T11:00:11.858Z,18.99
2022-10-23T11:01:12.028Z,18.99
2022-10-23T11:02:12.005Z,18.96
2022-10-23T11:03:11.925Z,18.93
2022-10-23T11:04:11.952Z,19.05
2022-10-23T11:05:11.985Z,18.96
2022-10-23T11:06:12.014Z,19.00
2022-10-23T11:07:12.065Z,19.02
2022-10-23T11:08:12.075Z,18.97
2022-10-23T11:09:20.159Z,18.96
2022-10-23T11:10:12.131Z,19.06
2022-10-23T11:11:12.163Z,19.00
2022-10-23T11:12:12.193Z,19.09
2022-10-23T11:13:12.224Z,18.94
2022-10-23T11:14:12.250Z,18.96
2022-10-23T11:15:12.282Z,18.91
2022-10-23T11:16:12.311Z,18.87
2022-10-23T11:17:12.341Z,18.87
2022-10-23T11:18:12.369Z,18.84
2022-10-23T11:19:13.960Z,18.81
2022-10-23T11:20:12.430Z,18.81
2022-10-23T11:21:12.458Z,18.76
2022-10-23T11:22:12.486Z,18.74
2022-10-23T11:23:12.537Z,18.76
2022-10-23T11:24:12.551Z,18.74
2022-10-23T11:25:12.578Z,18.68
2022-10-23T11:26:13.411Z,18.69
2022-10-23T11:27:12.637Z,18.66
2022-10-23T11:28:12.666Z,18.63
2022-10-23T11:29:12.696Z,18.65
2022-10-23T11:30:12.724Z,18.60
2022-10-23T11:31:12.756Z,18.61
2022-10-23T11:32:12.783Z,18.53
2022-10-23T11:33:12.816Z,18.51
2022-10-23T11:34:12.842Z,18.49
2022-10-23T11:35:12.881Z,18.35
2022-10-23T11:36:12.901Z,18.45
2022-10-23T11:37:12.933Z,18.56
2022-10-23T11:38:12.961Z,18.50
2022-10-23T11:39:13.008Z,18.57
2022-10-23T11:40:13.069Z,18.61
2022-10-23T11:41:13.049Z,18.69
2022-10-23T11:42:13.077Z,18.65
2022-10-23T11:43:13.105Z,18.69
2022-10-23T11:44:13.137Z,18.60
2022-10-23T11:45:13.169Z,18.63
2022-10-23T11:46:13.193Z,18.63
2022-10-23T11:47:13.225Z,18.68
2022-10-23T11:48:13.253Z,18.63
2022-10-23T11:49:13.331Z,18.74
2022-10-23T11:50:13.312Z,18.76
2022-10-23T11:51:13.343Z,18.81
2022-10-23T11:52:13.372Z,18.87
2022-10-23T11:53:14.620Z,19.00
2022-10-23T11:54:13.429Z,18.99
2022-10-23T11:55:13.479Z,19.07
2022-10-23T11:56:13.488Z,19.19
2022-10-23T11:57:13.518Z,19.20
2022-10-23T11:58:13.546Z,19.20
2022-10-23T11:59:13.578Z,19.19
2022-10-23T12:00:13.606Z,19.23
2022-10-23T12:01:13.655Z,19.24
2022-10-23T12:02:13.750Z,19.28
2022-10-23T12:03:13.696Z,19.32
2022-10-23T12:04:13.759Z,19.34
2022-10-23T12:05:13.755Z,19.28
2022-10-23T12:06:13.783Z,19.43
2022-10-23T12:07:13.814Z,19.28
2022-10-23T12:08:13.845Z,19.34
2022-10-23T12:09:13.874Z,19.27
2022-10-23T12:10:13.935Z,19.31
2022-10-23T12:11:13.952Z,19.35
2022-10-23T12:12:13.962Z,19.28
2022-10-23T12:13:13.991Z,19.30
2022-10-23T12:15:14.054Z,19.35
2022-10-23T12:16:14.079Z,19.40
2022-10-23T12:17:14.111Z,19.42
2022-10-23T12:18:14.140Z,19.47
2022-10-23T12:19:14.172Z,19.45
2022-10-23T12:20:14.200Z,19.43
2022-10-23T12:21:14.229Z,19.47
2022-10-23T12:22:14.257Z,19.53
2022-10-23T12:23:14.289Z,19.50
2022-10-23T12:24:14.319Z,19.65
2022-10-23T12:25:14.347Z,19.68
2022-10-23T12:26:14.377Z,19.56
2022-10-23T12:27:14.430Z,19.72
2022-10-23T12:28:14.436Z,19.63
2022-10-23T12:29:14.469Z,19.60
2022-10-23T12:30:14.499Z,19.53
2022-10-23T12:31:14.532Z,19.53
2022-10-23T12:32:14.555Z,19.49
2022-10-23T12:33:14.589Z,19.50
2022-10-23T12:34:14.616Z,19.52
2022-10-23T12:35:14.650Z,19.57
2022-10-23T12:36:14.676Z,19.57
2022-10-23T12:37:14.703Z,19.56
2022-10-23T12:38:14.733Z,19.57
2022-10-23T12:39:14.812Z,19.60
2022-10-23T12:40:14.798Z,19.64
2022-10-23T12:41:14.823Z,19.65
2022-10-23T12:42:14.852Z,19.53
2022-10-23T12:43:14.902Z,19.57
2022-10-23T12:44:14.913Z,19.64
2022-10-23T12:45:14.945Z,19.60
2022-10-23T12:46:17.668Z,19.57
2022-10-23T12:47:15.024Z,19.64
2022-10-23T12:48:15.048Z,19.57
2022-10-23T12:49:15.062Z,19.64
2022-10-23T12:50:15.093Z,19.64
2022-10-23T12:51:15.121Z,19.60
2022-10-23T12:52:15.154Z,19.60
2022-10-23T12:53:15.181Z,19.61
2022-10-23T12:54:15.213Z,19.65
2022-10-23T12:55:15.241Z,19.63
2022-10-23T12:56:15.275Z,19.68
2022-10-23T12:57:15.299Z,19.61
2022-10-23T12:58:15.332Z,19.64
2022-10-23T12:59:15.378Z,19.68
2022-10-23T13:00:15.393Z,19.68
2022-10-23T13:01:15.507Z,19.71
2022-10-23T13:02:15.558Z,19.64
2022-10-23T13:03:15.481Z,19.55
2022-10-23T13:04:15.573Z,19.67
2022-10-23T13:05:15.546Z,19.60
2022-10-23T13:06:15.569Z,19.60
2022-10-23T13:07:15.600Z,19.64
2022-10-23T13:08:15.631Z,19.68
2022-10-23T13:09:15.659Z,19.60
2022-10-23T13:10:15.695Z,19.63
2022-10-23T13:11:15.719Z,19.64
2022-10-23T13:12:15.751Z,19.56
2022-10-23T13:13:15.777Z,19.55
2022-10-23T13:14:15.810Z,19.53
2022-10-23T13:15:15.858Z,19.52
2022-10-23T13:16:15.871Z,19.53
2022-10-23T13:17:15.900Z,19.60